sensor_id;sensor_type;location;lat;lon;timestamp;pressure;altitude;pressure_sealevel;temperature;humidity
56600;BME280;51832;48.152;11.530;2023-05-25T00:00:27;95747.63;;;16.90;48.04
56600;BME280;51832;48.152;11.530;2023-05-25T00:05:28;95744.09;;;16.84;48.11
56600;BME280;51832;48.152;11.530;2023-05-25T00:10:28;95746.69;;;16.74;48.52
56600;BME280;51832;48.152;11.530;2023-05-25T00:15:28;95756.50;;;16.74;48.06
56600;BME280;51832;48.152;11.530;2023-05-25T00:20:29;95759.00;;;16.85;48.24
56600;BME280;51832;48.152;11.530;2023-05-25T00:25:32;95757.94;;;16.86;48.68
56600;BME280;51832;48.152;11.530;2023-05-25T00:30:32;95753.75;;;16.95;48.59
56600;BME280;51832;48.152;11.530;2023-05-25T00:35:32;95742.38;;;17.00;48.78
56600;BME280;51832;48.152;11.530;2023-05-25T00:40:33;95746.81;;;16.89;49.05
56600;BME280;51832;48.152;11.530;2023-05-25T00:45:34;95734.88;;;16.92;49.43
56600;BME280;51832;48.152;11.530;2023-05-25T00:50:40;95716.09;;;17.09;48.99
56600;BME280;51832;48.152;11.530;2023-05-25T00:55:57;95729.19;;;16.51;50.58
56600;BME280;51832;48.152;11.530;2023-05-25T01:01:00;95720.66;;;16.76;50.22
56600;BME280;51832;48.152;11.530;2023-05-25T01:06:06;95726.88;;;16.60;50.62
56600;BME280;51832;48.152;11.530;2023-05-25T01:11:10;95736.78;;;16.43;51.54
56600;BME280;51832;48.152;11.530;2023-05-25T01:16:11;95733.09;;;16.70;50.94
56600;BME280;51832;48.152;11.530;2023-05-25T01:21:30;95740.44;;;16.90;50.74
56600;BME280;51832;48.152;11.530;2023-05-25T01:26:46;95731.78;;;16.73;51.61
56600;BME280;51832;48.152;11.530;2023-05-25T01:31:48;95728.63;;;16.49;52.50
56600;BME280;51832;48.152;11.530;2023-05-25T01:36:49;95727.69;;;16.60;53.00
56600;BME280;51832;48.152;11.530;2023-05-25T01:41:50;95736.31;;;16.73;53.07
56600;BME280;51832;48.152;11.530;2023-05-25T01:46:58;95735.88;;;16.86;53.08
56600;BME280;51832;48.152;11.530;2023-05-25T01:57:14;95739.25;;;16.49;55.20
56600;BME280;51832;48.152;11.530;2023-05-25T02:02:17;95745.69;;;16.53;56.56
56600;BME280;51832;48.152;11.530;2023-05-25T02:07:18;95739.91;;;16.61;56.38
56600;BME280;51832;48.152;11.530;2023-05-25T02:12:19;95731.94;;;16.61;57.33
56600;BME280;51832;48.152;11.530;2023-05-25T02:17:19;95731.13;;;16.61;57.43
56600;BME280;51832;48.152;11.530;2023-05-25T02:22:20;95730.63;;;16.10;60.68
56600;BME280;51832;48.152;11.530;2023-05-25T02:27:21;95721.50;;;16.55;59.42
56600;BME280;51832;48.152;11.530;2023-05-25T02:32:21;95724.72;;;16.57;60.67
56600;BME280;51832;48.152;11.530;2023-05-25T02:37:21;95721.50;;;16.55;62.83
56600;BME280;51832;48.152;11.530;2023-05-25T02:42:22;95719.06;;;16.48;63.67
56600;BME280;51832;48.152;11.530;2023-05-25T02:47:22;95715.94;;;16.56;64.85
56600;BME280;51832;48.152;11.530;2023-05-25T02:52:23;95716.66;;;16.74;64.83
56600;BME280;51832;48.152;11.530;2023-05-25T02:57:24;95713.59;;;16.33;68.12
56600;BME280;51832;48.152;11.530;2023-05-25T03:02:26;95719.88;;;16.49;68.33
56600;BME280;51832;48.152;11.530;2023-05-25T03:07:28;95725.50;;;16.52;69.48
56600;BME280;51832;48.152;11.530;2023-05-25T03:12:28;95724.06;;;16.72;69.19
56600;BME280;51832;48.152;11.530;2023-05-25T03:17:28;95725.94;;;16.71;68.87
56600;BME280;51832;48.152;11.530;2023-05-25T03:22:29;95723.88;;;16.78;69.29
56600;BME280;51832;48.152;11.530;2023-05-25T03:27:30;95721.50;;;16.82;69.58
56600;BME280;51832;48.152;11.530;2023-05-25T03:32:30;95731.69;;;16.95;68.81
56600;BME280;51832;48.152;11.530;2023-05-25T03:37:31;95727.72;;;16.92;68.01
56600;BME280;51832;48.152;11.530;2023-05-25T03:42:31;95733.72;;;16.83;68.87
56600;BME280;51832;48.152;11.530;2023-05-25T03:47:32;95731.44;;;16.96;68.49
56600;BME280;51832;48.152;11.530;2023-05-25T03:52:32;95737.56;;;16.97;67.63
56600;BME280;51832;48.152;11.530;2023-05-25T03:57:33;95743.13;;;16.95;67.73
56600;BME280;51832;48.152;11.530;2023-05-25T04:02:33;95740.38;;;16.53;69.21
56600;BME280;51832;48.152;11.530;2023-05-25T04:07:34;95740.16;;;18.38;79.03
56600;BME280;51832;48.152;11.530;2023-05-25T04:12:36;95734.88;;;18.59;66.26
56600;BME280;51832;48.152;11.530;2023-05-25T04:17:37;95748.38;;;19.89;74.84
56600;BME280;51832;48.152;11.530;2023-05-25T04:22:38;95752.31;;;20.02;64.64
56600;BME280;51832;48.152;11.530;2023-05-25T04:27:38;95752.97;;;20.38;61.18
56600;BME280;51832;48.152;11.530;2023-05-25T04:32:39;95760.56;;;20.15;62.86
56600;BME280;51832;48.152;11.530;2023-05-25T04:37:40;95760.91;;;20.58;61.60
56600;BME280;51832;48.152;11.530;2023-05-25T04:42:41;95761.69;;;19.99;61.69
56600;BME280;51832;48.152;11.530;2023-05-25T04:47:42;95758.06;;;19.44;59.39
56600;BME280;51832;48.152;11.530;2023-05-25T04:52:42;95758.09;;;18.78;61.71
56600;BME280;51832;48.152;11.530;2023-05-25T04:57:42;95762.28;;;18.39;62.59
56600;BME280;51832;48.152;11.530;2023-05-25T05:02:43;95764.00;;;17.98;64.44
56600;BME280;51832;48.152;11.530;2023-05-25T05:07:43;95776.47;;;17.50;66.79
56600;BME280;51832;48.152;11.530;2023-05-25T05:12:44;95778.00;;;17.78;66.14
56600;BME280;51832;48.152;11.530;2023-05-25T05:17:45;95792.53;;;17.23;68.33
56600;BME280;51832;48.152;11.530;2023-05-25T05:22:45;95788.06;;;17.29;67.61
56600;BME280;51832;48.152;11.530;2023-05-25T05:27:46;95786.81;;;17.41;67.64
56600;BME280;51832;48.152;11.530;2023-05-25T05:32:46;95793.03;;;17.57;67.05
56600;BME280;51832;48.152;11.530;2023-05-25T05:37:46;95802.06;;;17.56;67.20
56600;BME280;51832;48.152;11.530;2023-05-25T05:42:49;95799.91;;;17.53;67.45
56600;BME280;51832;48.152;11.530;2023-05-25T05:47:49;95800.31;;;17.67;66.93
56600;BME280;51832;48.152;11.530;2023-05-25T05:52:50;95800.91;;;17.74;66.57
56600;BME280;51832;48.152;11.530;2023-05-25T05:57:52;95799.53;;;17.71;66.24
56600;BME280;51832;48.152;11.530;2023-05-25T06:02:53;95800.47;;;17.97;66.38
56600;BME280;51832;48.152;11.530;2023-05-25T06:07:53;95803.91;;;17.93;65.98
56600;BME280;51832;48.152;11.530;2023-05-25T06:12:53;95808.97;;;17.89;66.26
56600;BME280;51832;48.152;11.530;2023-05-25T06:17:54;95808.06;;;17.73;66.48
56600;BME280;51832;48.152;11.530;2023-05-25T06:22:54;95810.44;;;17.70;66.94
56600;BME280;51832;48.152;11.530;2023-05-25T06:27:55;95819.53;;;17.79;66.92
56600;BME280;51832;48.152;11.530;2023-05-25T06:32:56;95811.63;;;17.94;66.14
56600;BME280;51832;48.152;11.530;2023-05-25T06:37:56;95817.81;;;18.05;65.70
56600;BME280;51832;48.152;11.530;2023-05-25T06:42:57;95828.53;;;18.15;65.74
56600;BME280;51832;48.152;11.530;2023-05-25T06:47:57;95832.84;;;17.79;66.33
56600;BME280;51832;48.152;11.530;2023-05-25T06:52:58;95828.56;;;17.73;66.17
56600;BME280;51832;48.152;11.530;2023-05-25T06:57:58;95827.19;;;18.13;65.97
56600;BME280;51832;48.152;11.530;2023-05-25T07:02:58;95846.69;;;18.28;65.21
56600;BME280;51832;48.152;11.530;2023-05-25T07:07:59;95844.28;;;18.27;64.86
56600;BME280;51832;48.152;11.530;2023-05-25T07:12:59;95844.59;;;18.40;64.77
56600;BME280;51832;48.152;11.530;2023-05-25T07:18:00;95840.59;;;18.38;64.70
56600;BME280;51832;48.152;11.530;2023-05-25T07:23:00;95846.72;;;18.38;64.12
56600;BME280;51832;48.152;11.530;2023-05-25T07:28:01;95836.72;;;18.66;63.12
56600;BME280;51832;48.152;11.530;2023-05-25T07:33:02;95844.44;;;18.67;63.05
56600;BME280;51832;48.152;11.530;2023-05-25T07:38:02;95853.69;;;18.50;63.54
56600;BME280;51832;48.152;11.530;2023-05-25T07:43:06;95855.88;;;18.63;63.32
56600;BME280;51832;48.152;11.530;2023-05-25T07:48:06;95864.47;;;18.13;64.44
56600;BME280;51832;48.152;11.530;2023-05-25T07:53:08;95863.03;;;17.95;65.04
56600;BME280;51832;48.152;11.530;2023-05-25T07:58:08;95862.28;;;18.04;65.77
56600;BME280;51832;48.152;11.530;2023-05-25T08:03:09;95871.97;;;18.26;64.61
56600;BME280;51832;48.152;11.530;2023-05-25T08:08:10;95880.00;;;18.31;64.26
56600;BME280;51832;48.152;11.530;2023-05-25T08:13:10;95884.25;;;18.94;62.38
56600;BME280;51832;48.152;11.530;2023-05-25T08:18:10;95883.75;;;19.17;61.50
56600;BME280;51832;48.152;11.530;2023-05-25T08:23:12;95891.25;;;19.46;60.32
56600;BME280;51832;48.152;11.530;2023-05-25T08:28:13;95881.63;;;19.20;60.85
56600;BME280;51832;48.152;11.530;2023-05-25T08:33:13;95888.81;;;19.19;61.04
56600;BME280;51832;48.152;11.530;2023-05-25T08:38:14;95884.22;;;18.89;61.87
56600;BME280;51832;48.152;11.530;2023-05-25T08:43:14;95895.78;;;18.47;63.42
56600;BME280;51832;48.152;11.530;2023-05-25T08:48:17;95891.00;;;18.44;64.16
56600;BME280;51832;48.152;11.530;2023-05-25T08:53:20;95905.50;;;18.69;63.84
56600;BME280;51832;48.152;11.530;2023-05-25T08:58:30;95903.63;;;18.69;63.65
56600;BME280;51832;48.152;11.530;2023-05-25T09:03:32;95907.47;;;19.14;61.79
56600;BME280;51832;48.152;11.530;2023-05-25T09:08:34;95907.78;;;19.38;60.38
56600;BME280;51832;48.152;11.530;2023-05-25T09:13:35;95918.25;;;19.65;60.41
56600;BME280;51832;48.152;11.530;2023-05-25T09:18:36;95916.34;;;19.85;59.64
56600;BME280;51832;48.152;11.530;2023-05-25T09:23:36;95920.91;;;19.70;59.61
56600;BME280;51832;48.152;11.530;2023-05-25T09:28:46;95928.66;;;19.61;60.06
56600;BME280;51832;48.152;11.530;2023-05-25T09:33:47;95933.19;;;19.81;59.71
56600;BME280;51832;48.152;11.530;2023-05-25T09:38:47;95943.25;;;19.23;61.53
56600;BME280;51832;48.152;11.530;2023-05-25T09:43:48;95945.09;;;19.17;62.31
56600;BME280;51832;48.152;11.530;2023-05-25T09:48:49;95946.53;;;19.76;60.15
56600;BME280;51832;48.152;11.530;2023-05-25T09:53:50;95943.84;;;19.96;59.62
56600;BME280;51832;48.152;11.530;2023-05-25T09:58:51;95954.25;;;20.18;58.42
56600;BME280;51832;48.152;11.530;2023-05-25T10:03:51;95954.56;;;19.91;59.10
56600;BME280;51832;48.152;11.530;2023-05-25T10:08:56;95947.03;;;20.13;58.38
56600;BME280;51832;48.152;11.530;2023-05-25T10:13:58;95954.50;;;20.32;58.11
56600;BME280;51832;48.152;11.530;2023-05-25T10:19:35;95952.38;;;20.34;57.96
56600;BME280;51832;48.152;11.530;2023-05-25T10:24:48;95959.34;;;19.84;59.78
56600;BME280;51832;48.152;11.530;2023-05-25T10:29:55;95960.66;;;20.12;59.38
56600;BME280;51832;48.152;11.530;2023-05-25T10:34:56;95955.84;;;20.34;58.76
56600;BME280;51832;48.152;11.530;2023-05-25T10:39:56;95950.25;;;20.36;58.22
56600;BME280;51832;48.152;11.530;2023-05-25T10:44:57;95947.72;;;20.70;57.93
56600;BME280;51832;48.152;11.530;2023-05-25T10:49:58;95950.75;;;21.12;56.17
56600;BME280;51832;48.152;11.530;2023-05-25T10:55:02;95948.59;;;21.19;56.28
56600;BME280;51832;48.152;11.530;2023-05-25T11:00:05;95947.56;;;21.05;56.78
56600;BME280;51832;48.152;11.530;2023-05-25T11:26:35;95944.97;;;21.44;55.14
56600;BME280;51832;48.152;11.530;2023-05-25T11:31:35;95947.22;;;21.66;54.79
56600;BME280;51832;48.152;11.530;2023-05-25T11:36:36;95939.81;;;22.21;53.46
56600;BME280;51832;48.152;11.530;2023-05-25T11:41:38;95931.50;;;22.46;52.88
56600;BME280;51832;48.152;11.530;2023-05-25T11:46:40;95938.31;;;22.62;52.54
56600;BME280;51832;48.152;11.530;2023-05-25T11:51:42;95926.78;;;22.62;52.10
56600;BME280;51832;48.152;11.530;2023-05-25T11:56:43;95928.66;;;22.38;53.44
56600;BME280;51832;48.152;11.530;2023-05-25T12:01:53;95930.16;;;22.49;53.23
56600;BME280;51832;48.152;11.530;2023-05-25T12:07:04;95925.88;;;22.48;53.42
56600;BME280;51832;48.152;11.530;2023-05-25T12:12:05;95918.91;;;22.70;52.95
56600;BME280;51832;48.152;11.530;2023-05-25T12:17:06;95912.66;;;22.99;52.29
56600;BME280;51832;48.152;11.530;2023-05-25T12:22:06;95919.50;;;23.29;50.85
56600;BME280;51832;48.152;11.530;2023-05-25T12:27:17;95918.41;;;23.11;50.55
56600;BME280;51832;48.152;11.530;2023-05-25T12:32:18;95916.88;;;23.24;50.22
56600;BME280;51832;48.152;11.530;2023-05-25T12:37:20;95915.44;;;23.50;49.84
56600;BME280;51832;48.152;11.530;2023-05-25T12:42:21;95909.66;;;23.62;49.95
56600;BME280;51832;48.152;11.530;2023-05-25T12:47:22;95906.00;;;23.53;50.01
56600;BME280;51832;48.152;11.530;2023-05-25T12:52:36;95909.63;;;23.43;51.00
56600;BME280;51832;48.152;11.530;2023-05-25T12:57:37;95915.63;;;23.91;49.67
56600;BME280;51832;48.152;11.530;2023-05-25T13:02:42;95901.38;;;24.51;47.90
56600;BME280;51832;48.152;11.530;2023-05-25T13:07:43;95903.25;;;24.77;46.86
56600;BME280;51832;48.152;11.530;2023-05-25T13:12:48;95893.22;;;24.69;47.44
56600;BME280;51832;48.152;11.530;2023-05-25T13:17:49;95896.47;;;25.43;45.08
56600;BME280;51832;48.152;11.530;2023-05-25T13:22:51;95885.94;;;24.97;45.82
56600;BME280;51832;48.152;11.530;2023-05-25T13:27:52;95877.56;;;24.99;45.82
56600;BME280;51832;48.152;11.530;2023-05-25T13:32:53;95875.09;;;25.47;44.81
56600;BME280;51832;48.152;11.530;2023-05-25T13:37:54;95881.91;;;26.42;43.24
56600;BME280;51832;48.152;11.530;2023-05-25T13:42:54;95882.34;;;26.84;42.02
56600;BME280;51832;48.152;11.530;2023-05-25T13:47:55;95875.16;;;26.79;41.99
56600;BME280;51832;48.152;11.530;2023-05-25T13:52:55;95879.25;;;26.60;42.31
56600;BME280;51832;48.152;11.530;2023-05-25T13:57:56;95869.56;;;27.15;41.67
56600;BME280;51832;48.152;11.530;2023-05-25T14:02:56;95876.38;;;27.82;40.24
56600;BME280;51832;48.152;11.530;2023-05-25T14:07:57;95864.34;;;28.17;39.41
56600;BME280;51832;48.152;11.530;2023-05-25T14:13:00;95861.34;;;28.57;39.16
56600;BME280;51832;48.152;11.530;2023-05-25T14:18:00;95855.66;;;29.09;37.50
56600;BME280;51832;48.152;11.530;2023-05-25T14:23:00;95854.25;;;28.82;37.60
56600;BME280;51832;48.152;11.530;2023-05-25T14:28:01;95860.00;;;29.01;37.56
56600;BME280;51832;48.152;11.530;2023-05-25T14:33:01;95861.72;;;29.26;37.01
56600;BME280;51832;48.152;11.530;2023-05-25T14:38:02;95861.81;;;29.18;36.34
56600;BME280;51832;48.152;11.530;2023-05-25T14:43:02;95863.69;;;29.80;35.57
56600;BME280;51832;48.152;11.530;2023-05-25T14:48:03;95847.78;;;29.78;35.76
56600;BME280;51832;48.152;11.530;2023-05-25T14:53:03;95857.66;;;30.89;33.76
56600;BME280;51832;48.152;11.530;2023-05-25T14:58:03;95851.22;;;30.81;33.91
56600;BME280;51832;48.152;11.530;2023-05-25T15:03:04;95861.97;;;30.78;33.79
56600;BME280;51832;48.152;11.530;2023-05-25T15:08:04;95864.84;;;29.79;35.32
56600;BME280;51832;48.152;11.530;2023-05-25T15:13:05;95859.25;;;29.63;35.68
56600;BME280;51832;48.152;11.530;2023-05-25T15:18:05;95860.88;;;30.09;35.25
56600;BME280;51832;48.152;11.530;2023-05-25T15:23:06;95860.94;;;29.67;35.67
56600;BME280;51832;48.152;11.530;2023-05-25T15:28:06;95854.16;;;30.64;34.24
56600;BME280;51832;48.152;11.530;2023-05-25T15:33:07;95866.94;;;30.63;33.34
56600;BME280;51832;48.152;11.530;2023-05-25T15:38:07;95860.59;;;30.96;32.75
56600;BME280;51832;48.152;11.530;2023-05-25T15:43:07;95856.44;;;31.78;31.55
56600;BME280;51832;48.152;11.530;2023-05-25T15:48:08;95846.25;;;31.35;31.57
56600;BME280;51832;48.152;11.530;2023-05-25T15:53:09;95849.06;;;30.87;31.51
56600;BME280;51832;48.152;11.530;2023-05-25T15:58:09;95852.44;;;30.47;32.88
56600;BME280;51832;48.152;11.530;2023-05-25T16:03:10;95843.38;;;30.31;33.06
56600;BME280;51832;48.152;11.530;2023-05-25T16:08:10;95848.28;;;30.74;32.22
56600;BME280;51832;48.152;11.530;2023-05-25T16:13:13;95838.13;;;31.23;31.36
56600;BME280;51832;48.152;11.530;2023-05-25T16:18:13;95840.66;;;32.00;30.13
56600;BME280;51832;48.152;11.530;2023-05-25T16:23:15;95855.22;;;31.36;30.77
56600;BME280;51832;48.152;11.530;2023-05-25T16:28:16;95855.03;;;30.19;32.71
56600;BME280;51832;48.152;11.530;2023-05-25T16:33:16;95863.88;;;30.77;31.74
56600;BME280;51832;48.152;11.530;2023-05-25T16:38:17;95848.53;;;31.33;30.61
56600;BME280;51832;48.152;11.530;2023-05-25T16:43:17;95860.28;;;30.61;31.35
56600;BME280;51832;48.152;11.530;2023-05-25T16:48:17;95858.06;;;30.06;32.35
56600;BME280;51832;48.152;11.530;2023-05-25T16:53:18;95856.19;;;29.97;32.73
56600;BME280;51832;48.152;11.530;2023-05-25T16:58:18;95864.97;;;29.94;32.63
56600;BME280;51832;48.152;11.530;2023-05-25T17:03:19;95864.66;;;29.96;32.16
56600;BME280;51832;48.152;11.530;2023-05-25T17:08:19;95871.72;;;29.76;32.79
56600;BME280;51832;48.152;11.530;2023-05-25T17:13:20;95863.25;;;29.78;33.01
56600;BME280;51832;48.152;11.530;2023-05-25T17:18:20;95864.06;;;29.57;33.06
56600;BME280;51832;48.152;11.530;2023-05-25T17:23:21;95863.50;;;30.30;32.18
56600;BME280;51832;48.152;11.530;2023-05-25T17:28:21;95865.03;;;33.38;27.47
56600;BME280;51832;48.152;11.530;2023-05-25T17:33:21;95864.00;;;36.15;23.56
56600;BME280;51832;48.152;11.530;2023-05-25T17:38:22;95856.59;;;37.83;21.35
56600;BME280;51832;48.152;11.530;2023-05-25T17:43:22;95857.91;;;38.42;20.23
56600;BME280;51832;48.152;11.530;2023-05-25T17:48:23;95859.38;;;37.94;20.40
56600;BME280;51832;48.152;11.530;2023-05-25T17:53:23;95858.91;;;37.78;20.50
56600;BME280;51832;48.152;11.530;2023-05-25T17:58:23;95864.75;;;37.65;20.87
56600;BME280;51832;48.152;11.530;2023-05-25T18:03:24;95862.13;;;37.18;21.29
56600;BME280;51832;48.152;11.530;2023-05-25T18:08:24;95872.28;;;34.76;24.25
56600;BME280;51832;48.152;11.530;2023-05-25T18:13:25;95878.22;;;34.55;25.06
56600;BME280;51832;48.152;11.530;2023-05-25T18:18:25;95881.41;;;34.15;25.42
56600;BME280;51832;48.152;11.530;2023-05-25T18:23:26;95877.53;;;33.97;25.22
56600;BME280;51832;48.152;11.530;2023-05-25T18:28:28;95881.94;;;34.01;25.45
56600;BME280;51832;48.152;11.530;2023-05-25T18:33:28;95885.78;;;33.42;26.29
56600;BME280;51832;48.152;11.530;2023-05-25T18:38:28;95878.16;;;32.50;27.58
56600;BME280;51832;48.152;11.530;2023-05-25T18:43:29;95879.31;;;32.05;27.93
56600;BME280;51832;48.152;11.530;2023-05-25T18:48:29;95892.63;;;31.27;29.32
56600;BME280;51832;48.152;11.530;2023-05-25T18:53:30;95900.91;;;30.57;30.82
56600;BME280;51832;48.152;11.530;2023-05-25T18:58:30;95896.91;;;29.97;31.70
56600;BME280;51832;48.152;11.530;2023-05-25T19:03:30;95893.56;;;29.59;32.95
56600;BME280;51832;48.152;11.530;2023-05-25T19:08:31;95900.09;;;29.37;33.51
56600;BME280;51832;48.152;11.530;2023-05-25T19:13:32;95909.00;;;29.17;33.93
56600;BME280;51832;48.152;11.530;2023-05-25T19:18:32;95909.34;;;28.86;34.71
56600;BME280;51832;48.152;11.530;2023-05-25T19:23:33;95913.94;;;28.56;35.53
56600;BME280;51832;48.152;11.530;2023-05-25T19:28:34;95928.06;;;27.98;37.98
56600;BME280;51832;48.152;11.530;2023-05-25T19:33:34;95930.59;;;27.34;40.11
56600;BME280;51832;48.152;11.530;2023-05-25T19:38:35;95937.72;;;27.12;41.26
56600;BME280;51832;48.152;11.530;2023-05-25T19:43:35;95958.31;;;26.91;42.33
56600;BME280;51832;48.152;11.530;2023-05-25T19:48:37;95947.16;;;26.92;43.02
56600;BME280;51832;48.152;11.530;2023-05-25T19:53:39;95956.31;;;26.74;44.21
56600;BME280;51832;48.152;11.530;2023-05-25T19:58:39;95963.13;;;26.72;44.50
56600;BME280;51832;48.152;11.530;2023-05-25T20:03:40;95975.97;;;26.66;44.80
56600;BME280;51832;48.152;11.530;2023-05-25T20:08:41;95975.41;;;26.47;45.05
56600;BME280;51832;48.152;11.530;2023-05-25T20:13:41;95978.53;;;26.40;45.09
56600;BME280;51832;48.152;11.530;2023-05-25T20:18:42;95975.97;;;25.91;47.21
56600;BME280;51832;48.152;11.530;2023-05-25T20:23:42;95989.38;;;25.46;48.42
56600;BME280;51832;48.152;11.530;2023-05-25T20:28:42;95988.13;;;24.29;52.37
56600;BME280;51832;48.152;11.530;2023-05-25T20:33:43;95986.03;;;24.07;52.96
56600;BME280;51832;48.152;11.530;2023-05-25T20:38:43;95988.97;;;23.92;54.53
56600;BME280;51832;48.152;11.530;2023-05-25T20:43:44;95984.19;;;23.70;55.06
56600;BME280;51832;48.152;11.530;2023-05-25T20:48:45;95991.84;;;23.20;57.20
56600;BME280;51832;48.152;11.530;2023-05-25T20:53:45;95991.28;;;23.23;56.49
56600;BME280;51832;48.152;11.530;2023-05-25T20:58:45;95987.22;;;23.45;56.01
56600;BME280;51832;48.152;11.530;2023-05-25T21:03:46;95994.81;;;23.19;56.84
56600;BME280;51832;48.152;11.530;2023-05-25T21:08:46;95994.06;;;23.13;57.15
56600;BME280;51832;48.152;11.530;2023-05-25T21:13:47;95979.34;;;23.11;57.11
56600;BME280;51832;48.152;11.530;2023-05-25T21:18:47;95996.47;;;22.96;58.12
56600;BME280;51832;48.152;11.530;2023-05-25T21:23:48;95994.63;;;22.91;58.06
56600;BME280;51832;48.152;11.530;2023-05-25T21:28:48;95991.47;;;22.55;59.15
56600;BME280;51832;48.152;11.530;2023-05-25T21:33:48;95990.91;;;22.58;59.17
56600;BME280;51832;48.152;11.530;2023-05-25T21:38:50;95990.31;;;22.66;59.17
56600;BME280;51832;48.152;11.530;2023-05-25T21:43:50;95998.97;;;22.58;59.45
56600;BME280;51832;48.152;11.530;2023-05-25T21:48:51;96003.50;;;22.63;59.37
56600;BME280;51832;48.152;11.530;2023-05-25T21:53:51;95993.72;;;22.48;59.68
56600;BME280;51832;48.152;11.530;2023-05-25T21:58:52;95998.00;;;22.49;59.97
56600;BME280;51832;48.152;11.530;2023-05-25T22:03:53;95993.81;;;22.38;60.06
56600;BME280;51832;48.152;11.530;2023-05-25T22:08:53;95993.25;;;22.41;60.23
56600;BME280;51832;48.152;11.530;2023-05-25T22:13:54;95992.22;;;22.37;60.25
56600;BME280;51832;48.152;11.530;2023-05-25T22:18:55;95998.69;;;22.60;59.51
56600;BME280;51832;48.152;11.530;2023-05-25T22:23:55;95992.53;;;22.30;60.39
56600;BME280;51832;48.152;11.530;2023-05-25T22:28:56;95989.34;;;22.28;60.28
56600;BME280;51832;48.152;11.530;2023-05-25T22:33:56;95989.69;;;22.22;60.81
56600;BME280;51832;48.152;11.530;2023-05-25T22:38:56;95992.66;;;22.15;60.45
56600;BME280;51832;48.152;11.530;2023-05-25T22:43:57;95987.31;;;22.15;60.53
56600;BME280;51832;48.152;11.530;2023-05-25T22:48:57;95991.06;;;22.14;61.00
56600;BME280;51832;48.152;11.530;2023-05-25T22:53:58;95989.25;;;22.10;61.31
56600;BME280;51832;48.152;11.530;2023-05-25T22:58:58;95982.63;;;21.97;61.65
56600;BME280;51832;48.152;11.530;2023-05-25T23:03:58;95981.31;;;21.94;61.77
56600;BME280;51832;48.152;11.530;2023-05-25T23:08:59;95978.09;;;21.92;61.61
56600;BME280;51832;48.152;11.530;2023-05-25T23:13:59;95970.94;;;21.83;62.14
56600;BME280;51832;48.152;11.530;2023-05-25T23:19:00;95972.56;;;21.79;61.99
56600;BME280;51832;48.152;11.530;2023-05-25T23:24:00;95973.31;;;22.52;59.79
56600;BME280;51832;48.152;11.530;2023-05-25T23:29:01;95974.94;;;22.77;59.25
56600;BME280;51832;48.152;11.530;2023-05-25T23:34:01;95974.22;;;22.66;59.38
56600;BME280;51832;48.152;11.530;2023-05-25T23:39:02;95973.81;;;22.54;59.66
56600;BME280;51832;48.152;11.530;2023-05-25T23:44:02;95976.94;;;22.38;59.53
56600;BME280;51832;48.152;11.530;2023-05-25T23:49:03;95971.94;;;22.26;60.71
56600;BME280;51832;48.152;11.530;2023-05-25T23:54:03;95971.44;;;22.24;60.50
56600;BME280;51832;48.152;11.530;2023-05-25T23:59:04;95967.66;;;22.25;60.71
